createdAt,value
2019-04-07T00:01:14.580Z,32.25
2019-04-07T00:03:46.379Z,29.00
2019-04-07T00:06:17.960Z,31.07
2019-04-07T00:08:49.767Z,28.02
2019-04-07T00:11:21.514Z,29.72
2019-04-07T00:13:53.096Z,28.38
2019-04-07T00:16:26.415Z,27.67
2019-04-07T00:18:58.526Z,26.57
2019-04-07T00:24:02.414Z,28.25
2019-04-07T00:26:34.258Z,28.55
2019-04-07T00:29:05.836Z,27.58
2019-04-07T00:31:37.468Z,27.65
2019-04-07T00:34:09.599Z,30.40
2019-04-07T00:36:41.192Z,28.70
2019-04-07T00:39:12.852Z,26.97
2019-04-07T00:41:44.430Z,26.85
2019-04-07T00:44:16.020Z,26.85
2019-04-07T00:46:47.695Z,26.35
2019-04-07T00:49:19.378Z,28.25
2019-04-07T00:51:52.940Z,28.17
2019-04-07T00:54:25.273Z,27.95
2019-04-07T00:56:57.752Z,27.98
2019-04-07T00:59:29.709Z,28.65
2019-04-07T01:04:31.946Z,28.25
2019-04-07T01:07:03.657Z,27.90
2019-04-07T01:09:35.341Z,29.77
2019-04-07T01:12:07.195Z,27.00
2019-04-07T01:14:40.072Z,28.62
2019-04-07T01:17:11.714Z,27.87
2019-04-07T01:19:44.221Z,27.93
2019-04-07T01:22:16.567Z,27.93
2019-04-07T01:27:19.215Z,29.23
2019-04-07T01:29:51.683Z,26.33
2019-04-07T01:32:24.609Z,27.42
2019-04-07T01:34:56.184Z,26.42
2019-04-07T01:37:28.982Z,26.68
2019-04-07T01:40:01.546Z,27.27
2019-04-07T01:42:37.604Z,26.35
2019-04-07T01:45:28.009Z,27.45
2019-04-07T01:48:03.909Z,28.70
2019-04-07T01:50:40.137Z,28.07
2019-04-07T01:53:28.273Z,27.60
2019-04-07T01:56:07.624Z,27.50
2019-04-07T01:58:40.919Z,25.82
2019-04-07T02:01:23.089Z,26.73
2019-04-07T02:06:32.068Z,24.82
2019-04-07T02:09:12.707Z,28.60
2019-04-07T02:12:03.796Z,24.87
2019-04-07T02:14:53.360Z,27.02
2019-04-07T02:17:38.259Z,26.97
2019-04-07T02:20:17.868Z,30.57
2019-04-07T02:22:53.177Z,32.73
2019-04-07T02:25:30.018Z,37.65
2019-04-07T02:28:09.051Z,33.08
2019-04-07T02:30:45.957Z,33.75
2019-04-07T02:33:28.778Z,30.88
2019-04-07T02:36:17.978Z,28.83
2019-04-07T02:38:45.713Z,28.15
2019-04-07T02:41:22.198Z,29.55
2019-04-07T02:44:04.928Z,29.05
2019-04-07T02:46:38.362Z,27.77
2019-04-07T02:49:12.316Z,26.37
2019-04-07T02:51:47.796Z,27.22
2019-04-07T02:54:24.664Z,26.33
2019-04-07T02:57:00.793Z,25.68
2019-04-07T02:59:44.281Z,27.27
2019-04-07T03:02:30.336Z,27.07
2019-04-07T03:05:13.700Z,26.45
2019-04-07T03:07:53.171Z,25.72
2019-04-07T03:10:41.355Z,27.48
2019-04-07T03:13:26.828Z,27.75
2019-04-07T03:16:01.945Z,26.33
2019-04-07T03:18:38.941Z,29.92
2019-04-07T03:21:19.464Z,29.85
2019-04-07T03:24:04.906Z,29.75
2019-04-07T03:26:55.631Z,28.40
2019-04-07T03:29:28.827Z,28.60
2019-04-07T03:32:02.846Z,29.85
2019-04-07T03:34:40.822Z,30.48
2019-04-07T03:37:32.245Z,30.77
2019-04-07T03:40:08.295Z,29.02
2019-04-07T03:42:41.779Z,29.05
2019-04-07T03:45:15.727Z,28.98
2019-04-07T03:47:52.416Z,29.05
2019-04-07T03:50:31.612Z,29.57
2019-04-07T03:53:20.829Z,31.20
2019-04-07T03:55:57.721Z,31.77
2019-04-07T03:58:39.852Z,29.42
2019-04-07T04:01:28.500Z,29.90
2019-04-07T04:04:14.238Z,30.00
2019-04-07T04:07:17.782Z,28.10
2019-04-07T04:09:45.481Z,27.80
2019-04-07T04:12:27.748Z,27.90
2019-04-07T04:15:10.918Z,29.00
2019-04-07T04:17:42.544Z,27.85
2019-04-07T04:20:14.764Z,27.25
2019-04-07T04:22:46.558Z,28.17
2019-04-07T04:25:19.030Z,27.87
2019-04-07T04:27:51.090Z,31.17
2019-04-07T04:30:22.755Z,27.95
2019-04-07T04:32:54.350Z,27.58
2019-04-07T04:35:26.629Z,27.85
2019-04-07T04:37:59.656Z,28.60
2019-04-07T04:40:32.309Z,27.62
2019-04-07T04:43:04.685Z,27.15
2019-04-07T04:45:36.578Z,24.37
2019-04-07T04:48:08.756Z,26.52
2019-04-07T04:50:40.504Z,26.20
2019-04-07T04:53:12.524Z,28.62
2019-04-07T04:55:44.192Z,28.70
2019-04-07T04:58:15.753Z,26.87
2019-04-07T05:00:48.479Z,26.10
2019-04-07T05:03:21.576Z,25.82
2019-04-07T05:08:24.728Z,27.90
2019-04-07T05:10:56.552Z,26.07
2019-04-07T05:13:28.331Z,24.80
2019-04-07T05:16:00.526Z,26.00
2019-04-07T05:18:32.434Z,26.87
2019-04-07T05:21:04.305Z,24.25
2019-04-07T05:23:36.035Z,24.02
2019-04-07T05:26:07.877Z,22.42
2019-04-07T05:28:40.610Z,21.65
2019-04-07T05:36:03.868Z,18.55
2019-04-07T05:38:35.703Z,20.30
2019-04-07T05:43:38.172Z,18.37
2019-04-07T05:46:09.856Z,17.62
2019-04-07T05:48:42.047Z,18.37
2019-04-07T05:51:14.354Z,17.12
2019-04-07T05:53:47.405Z,16.15
2019-04-07T05:56:19.818Z,15.48
2019-04-07T05:58:51.770Z,15.32
2019-04-07T06:01:24.535Z,14.83
2019-04-07T06:03:56.712Z,15.25
2019-04-07T06:08:59.822Z,14.65
2019-04-07T06:11:34.016Z,14.80
2019-04-07T06:14:05.015Z,14.83
2019-04-07T06:16:37.772Z,13.62
2019-04-07T06:19:09.439Z,13.15
2019-04-07T06:21:41.617Z,14.45
2019-04-07T06:24:13.421Z,15.32
2019-04-07T06:26:48.132Z,12.85
2019-04-07T06:29:18.354Z,13.65
2019-04-07T06:31:49.887Z,14.05
2019-04-07T06:34:21.635Z,13.32
2019-04-07T06:36:55.324Z,14.07
2019-04-07T06:39:26.715Z,14.95
2019-04-07T06:42:01.366Z,16.07
2019-04-07T06:44:33.472Z,16.82
2019-04-07T06:49:53.727Z,14.03
2019-04-07T06:52:39.802Z,14.38
2019-04-07T06:55:29.666Z,14.00
2019-04-07T06:58:12.883Z,13.78
2019-04-07T07:00:49.287Z,14.13
2019-04-07T07:03:39.853Z,13.48
2019-04-07T07:06:25.192Z,12.68
2019-04-07T07:09:08.288Z,12.65
2019-04-07T07:11:44.105Z,13.10
2019-04-07T07:14:32.391Z,12.40
2019-04-07T07:17:00.414Z,12.18
2019-04-07T07:19:51.171Z,12.73
2019-04-07T07:22:36.392Z,10.90
2019-04-07T07:25:10.325Z,10.75
2019-04-07T07:27:42.731Z,11.57
2019-04-07T07:30:18.354Z,10.93
2019-04-07T07:32:49.753Z,10.08
2019-04-07T07:35:22.275Z,10.13
2019-04-07T07:37:57.585Z,10.32
2019-04-07T07:40:27.564Z,9.40
2019-04-07T07:45:31.723Z,11.20
2019-04-07T07:48:03.322Z,8.83
2019-04-07T07:50:38.028Z,9.43
2019-04-07T07:53:08.194Z,9.00
2019-04-07T07:55:40.198Z,9.33
2019-04-07T07:58:12.282Z,9.65
2019-04-07T08:00:44.838Z,9.55
2019-04-07T08:03:18.897Z,8.40
2019-04-07T08:05:51.336Z,12.43
2019-04-07T08:08:23.446Z,9.73
2019-04-07T08:10:58.563Z,9.40
2019-04-07T08:13:28.993Z,9.35
2019-04-07T08:17:09.358Z,11.63
2019-04-07T08:19:42.262Z,10.48
2019-04-07T08:22:12.234Z,11.83
2019-04-07T08:24:42.746Z,10.88
2019-04-07T08:27:13.050Z,10.70
2019-04-07T08:29:43.314Z,15.48
2019-04-07T08:32:13.430Z,11.63
2019-04-07T08:34:43.767Z,14.85
2019-04-07T08:37:15.170Z,12.33
2019-04-07T08:39:45.714Z,11.45
2019-04-07T08:42:18.526Z,12.18
2019-04-07T08:47:21.020Z,11.33
2019-04-07T08:52:18.697Z,10.20
2019-04-07T08:54:51.367Z,11.28
2019-04-07T08:57:21.342Z,10.35
2019-04-07T08:59:51.636Z,9.77
2019-04-07T09:02:24.476Z,13.98
2019-04-07T09:07:24.668Z,10.48
2019-04-07T09:09:55.556Z,11.15
2019-04-07T09:12:28.894Z,11.90
2019-04-07T09:17:46.629Z,11.28
2019-04-07T09:20:34.608Z,10.85
2019-04-07T09:23:06.978Z,10.13
2019-04-07T09:25:56.228Z,10.32
2019-04-07T09:31:25.801Z,22.82
2019-04-07T09:36:53.030Z,12.75
2019-04-07T09:39:54.668Z,21.80
2019-04-07T09:42:13.743Z,12.25
2019-04-07T09:44:54.682Z,12.95
2019-04-07T09:47:32.412Z,15.78
2019-04-07T09:50:20.464Z,13.20
2019-04-07T09:52:52.137Z,12.07
2019-04-07T09:55:36.752Z,12.30
2019-04-07T09:58:11.612Z,10.23
2019-04-07T10:00:46.535Z,10.08
2019-04-07T10:03:38.153Z,11.65
2019-04-07T10:06:13.133Z,11.63
2019-04-07T10:08:51.027Z,13.85
2019-04-07T10:11:29.562Z,10.65
2019-04-07T10:14:19.535Z,11.25
2019-04-07T10:17:08.646Z,11.12
2019-04-07T10:19:41.336Z,10.05
2019-04-07T10:25:18.668Z,11.18
2019-04-07T10:27:59.273Z,10.25
2019-04-07T10:30:49.134Z,9.68
2019-04-07T10:33:27.206Z,9.68
2019-04-07T10:35:59.172Z,9.55
2019-04-07T10:41:18.446Z,10.63
2019-04-07T10:44:08.495Z,10.08
2019-04-07T10:46:56.669Z,9.78
2019-04-07T10:49:40.618Z,9.33
2019-04-07T10:52:19.664Z,11.05
2019-04-07T10:54:57.415Z,10.43
2019-04-07T10:57:35.426Z,11.15
2019-04-07T11:00:09.023Z,8.95
2019-04-07T11:02:55.429Z,10.45
2019-04-07T11:05:42.736Z,10.03
2019-04-07T11:08:30.958Z,9.03
2019-04-07T11:11:14.769Z,10.15
2019-04-07T11:13:49.988Z,8.80
2019-04-07T11:16:22.054Z,9.25
2019-04-07T11:19:10.060Z,10.43
2019-04-07T11:21:56.748Z,7.85
2019-04-07T11:24:34.030Z,9.03
2019-04-07T11:27:21.226Z,9.08
2019-04-07T11:29:52.959Z,7.78
2019-04-07T11:34:58.579Z,9.35
2019-04-07T11:37:30.877Z,8.80
2019-04-07T11:40:11.808Z,9.10
2019-04-07T11:42:46.616Z,8.35
2019-04-07T11:45:18.401Z,7.67
2019-04-07T11:50:27.870Z,8.35
2019-04-07T11:53:03.796Z,9.05
2019-04-07T11:55:45.314Z,9.23
2019-04-07T11:58:34.646Z,8.68
2019-04-07T12:01:06.827Z,8.20
2019-04-07T12:03:54.713Z,10.95
2019-04-07T12:06:34.243Z,8.65
2019-04-07T12:09:10.809Z,7.60
2019-04-07T12:11:59.553Z,8.80
2019-04-07T12:14:40.200Z,10.13
2019-04-07T12:17:28.776Z,9.23
2019-04-07T12:20:00.557Z,7.80
2019-04-07T12:25:17.004Z,9.50
2019-04-07T12:27:48.844Z,8.53
2019-04-07T12:33:09.903Z,8.80
2019-04-07T12:35:58.623Z,9.30
2019-04-07T12:38:30.681Z,8.65
2019-04-07T12:41:13.384Z,9.35
2019-04-07T12:43:45.707Z,8.53
2019-04-07T12:46:22.050Z,8.90
2019-04-07T12:48:59.764Z,8.93
2019-04-07T12:51:31.827Z,7.90
2019-04-07T12:54:10.339Z,9.40
2019-04-07T12:56:45.572Z,8.73
2019-04-07T12:59:18.320Z,10.23
2019-04-07T13:01:51.045Z,9.43
2019-04-07T13:07:19.495Z,9.70
2019-04-07T13:09:51.869Z,8.83
2019-04-07T13:12:29.492Z,8.35
2019-04-07T13:15:02.312Z,9.68
2019-04-07T13:17:53.766Z,8.93
2019-04-07T13:20:25.444Z,9.68
2019-04-07T13:25:38.502Z,9.28
2019-04-07T13:28:10.940Z,9.15
2019-04-07T13:30:50.028Z,9.73
2019-04-07T13:33:39.367Z,8.80
2019-04-07T13:36:29.109Z,10.28
2019-04-07T13:39:12.597Z,10.05
2019-04-07T13:41:46.421Z,9.85
2019-04-07T13:44:17.717Z,8.98
2019-04-07T13:49:31.811Z,9.98
2019-04-07T13:52:19.302Z,10.35
2019-04-07T13:54:48.335Z,10.35
2019-04-07T14:00:12.857Z,9.58
2019-04-07T14:02:50.918Z,10.65
2019-04-07T14:05:41.830Z,9.23
2019-04-07T14:08:31.002Z,11.35
2019-04-07T14:11:10.118Z,9.80
2019-04-07T14:13:44.740Z,10.68
2019-04-07T14:16:22.303Z,8.93
2019-04-07T14:19:06.703Z,9.85
2019-04-07T14:21:39.597Z,10.32
2019-04-07T14:24:17.336Z,9.18
2019-04-07T14:26:49.917Z,10.10
2019-04-07T14:29:38.025Z,12.82
2019-04-07T14:32:09.942Z,9.85
2019-04-07T14:34:41.721Z,9.83
2019-04-07T14:39:57.272Z,11.83
2019-04-07T14:42:44.565Z,9.00
2019-04-07T14:45:16.756Z,7.83
2019-04-07T14:50:23.190Z,9.30
2019-04-07T14:52:55.174Z,13.28
2019-04-07T14:55:45.170Z,8.80
2019-04-07T14:58:26.932Z,8.85
2019-04-07T15:03:44.639Z,8.93
2019-04-07T15:06:16.481Z,12.47
2019-04-07T15:08:50.956Z,9.48
2019-04-07T15:11:23.767Z,9.65
2019-04-07T15:13:56.965Z,8.05
2019-04-07T15:18:56.610Z,7.83
2019-04-07T15:21:27.427Z,8.50
2019-04-07T15:24:01.908Z,8.75
2019-04-07T15:29:05.327Z,10.13
2019-04-07T15:34:04.105Z,9.05
2019-04-07T15:36:33.177Z,8.08
2019-04-07T15:39:05.234Z,9.30
2019-04-07T15:41:36.205Z,9.93
2019-04-07T15:44:09.165Z,9.88
2019-04-07T15:46:38.180Z,11.90
2019-04-07T15:49:08.844Z,10.68
2019-04-07T15:51:41.584Z,12.68
2019-04-07T15:56:41.317Z,12.40
2019-04-07T15:59:11.927Z,10.53
2019-04-07T16:01:42.975Z,11.97
2019-04-07T16:04:13.929Z,11.08
2019-04-07T16:06:47.383Z,10.60
2019-04-07T16:14:19.241Z,12.90
2019-04-07T16:16:51.301Z,10.40
2019-04-07T16:19:34.160Z,10.43
2019-04-07T16:21:53.008Z,11.50
2019-04-07T16:24:23.138Z,11.43
2019-04-07T16:26:53.248Z,10.75
2019-04-07T16:29:23.560Z,10.53
2019-04-07T16:31:55.775Z,11.35
2019-04-07T16:36:57.236Z,12.37
2019-04-07T16:41:56.779Z,13.20
2019-04-07T16:44:27.685Z,14.78
2019-04-07T16:47:02.654Z,15.83
2019-04-07T16:49:30.400Z,17.35
2019-04-07T16:52:02.288Z,15.80
2019-04-07T16:54:32.628Z,16.15
2019-04-07T16:57:03.214Z,15.60
2019-04-07T16:59:34.926Z,17.42
2019-04-07T17:02:05.711Z,17.35
2019-04-07T17:04:36.521Z,18.42
2019-04-07T17:07:12.000Z,18.73
2019-04-07T17:09:38.555Z,21.65
2019-04-07T17:12:11.127Z,22.27
2019-04-07T17:14:40.588Z,22.95
2019-04-07T17:17:11.163Z,25.68
2019-04-07T17:19:43.671Z,24.67
2019-04-07T17:22:16.007Z,27.47
2019-04-07T17:27:16.105Z,28.45
2019-04-07T17:29:49.148Z,28.15
2019-04-07T17:32:18.857Z,25.80
2019-04-07T17:34:49.709Z,25.88
2019-04-07T17:37:20.154Z,25.47
2019-04-07T17:39:51.814Z,26.35
2019-04-07T17:42:25.836Z,25.77
2019-04-07T17:45:01.453Z,28.15
2019-04-07T17:47:35.543Z,33.02
2019-04-07T17:50:26.039Z,30.45
2019-04-07T17:53:11.655Z,28.75
2019-04-07T17:55:42.121Z,20.02
2019-04-07T17:58:30.970Z,19.57
2019-04-07T18:01:09.016Z,17.75
2019-04-07T18:03:49.739Z,18.32
2019-04-07T18:06:34.495Z,18.65
2019-04-07T18:09:23.573Z,17.02
2019-04-07T18:12:11.629Z,14.83
2019-04-07T18:14:44.483Z,13.83
2019-04-07T18:17:33.474Z,21.35
2019-04-07T18:20:10.770Z,22.42
2019-04-07T18:22:42.829Z,19.00
2019-04-07T18:25:27.369Z,26.15
2019-04-07T18:27:59.945Z,22.02
2019-04-07T18:30:33.435Z,19.92
2019-04-07T18:33:18.220Z,17.30
2019-04-07T18:35:56.858Z,17.60
2019-04-07T18:38:41.698Z,15.58
2019-04-07T18:41:11.355Z,15.95
2019-04-07T18:44:01.927Z,13.83
2019-04-07T18:46:26.981Z,12.53
2019-04-07T18:49:04.812Z,13.93
2019-04-07T18:51:52.369Z,12.90
2019-04-07T18:54:30.782Z,13.32
2019-04-07T18:57:17.933Z,13.05
2019-04-07T19:00:04.304Z,13.32
2019-04-07T19:02:53.861Z,13.08
2019-04-07T19:05:26.384Z,12.98
2019-04-07T19:08:17.470Z,13.18
2019-04-07T19:10:51.579Z,14.83
2019-04-07T19:13:30.010Z,14.28
2019-04-07T19:16:04.801Z,14.45
2019-04-07T19:18:42.755Z,14.75
2019-04-07T19:21:27.973Z,13.65
2019-04-07T19:24:10.260Z,14.58
2019-04-07T19:29:29.127Z,16.35
2019-04-07T19:32:01.711Z,19.45
2019-04-07T19:34:51.654Z,23.77
2019-04-07T19:37:26.254Z,24.45
2019-04-07T19:40:01.259Z,20.80
2019-04-07T19:42:43.977Z,21.10
2019-04-07T19:45:13.756Z,20.40
2019-04-07T19:47:54.876Z,17.52
2019-04-07T19:50:43.162Z,17.92
2019-04-07T19:53:32.485Z,17.30
2019-04-07T19:56:19.594Z,15.93
2019-04-07T19:59:04.983Z,15.63
2019-04-07T20:01:37.925Z,14.38
2019-04-07T20:04:18.810Z,16.93
2019-04-07T20:07:07.066Z,16.87
2019-04-07T20:09:42.789Z,17.98
2019-04-07T20:12:14.840Z,16.60
2019-04-07T20:14:51.962Z,16.87
2019-04-07T20:17:38.850Z,17.05
2019-04-07T20:20:25.808Z,16.07
2019-04-07T20:22:58.788Z,15.70
2019-04-07T20:25:48.115Z,15.45
2019-04-07T20:28:23.709Z,13.55
2019-04-07T20:31:12.608Z,14.58
2019-04-07T20:34:04.604Z,29.52
2019-04-07T20:36:43.177Z,26.93
2019-04-07T20:39:20.950Z,25.90
2019-04-07T20:41:52.612Z,30.15
2019-04-07T20:44:31.684Z,31.17
2019-04-07T20:47:03.274Z,23.00
2019-04-07T20:49:51.641Z,28.65
2019-04-07T20:52:29.924Z,23.87
2019-04-07T20:55:04.802Z,20.85
2019-04-07T20:57:39.084Z,20.05
2019-04-07T21:00:14.295Z,20.30
2019-04-07T21:03:06.574Z,20.82
2019-04-07T21:05:42.099Z,20.70
2019-04-07T21:08:29.942Z,22.32
2019-04-07T21:11:08.616Z,22.70
2019-04-07T21:13:40.331Z,22.62
2019-04-07T21:16:11.982Z,19.95
2019-04-07T21:18:53.165Z,16.50
2019-04-07T21:21:25.634Z,16.67
2019-04-07T21:24:18.236Z,17.77
2019-04-07T21:27:00.936Z,15.68
2019-04-07T21:29:44.064Z,16.65
2019-04-07T21:32:18.659Z,15.53
2019-04-07T21:35:06.014Z,16.00
2019-04-07T21:37:40.872Z,15.98
2019-04-07T21:40:18.784Z,16.02
2019-04-07T21:42:54.113Z,15.35
2019-04-07T21:45:36.884Z,15.23
2019-04-07T21:48:00.186Z,15.65
2019-04-07T21:50:49.760Z,14.90
2019-04-07T21:53:28.868Z,15.85
2019-04-07T21:55:58.931Z,16.20
2019-04-07T21:58:33.632Z,15.88
2019-04-07T22:01:11.507Z,15.95
2019-04-07T22:03:46.206Z,15.32
2019-04-07T22:06:23.087Z,15.35
2019-04-07T22:08:59.025Z,14.38
2019-04-07T22:11:30.467Z,15.18
2019-04-07T22:14:01.004Z,13.65
2019-04-07T22:16:32.778Z,14.73
2019-04-07T22:19:02.970Z,14.07
2019-04-07T22:21:34.088Z,14.25
2019-04-07T22:24:04.900Z,14.55
2019-04-07T22:26:35.340Z,14.38
2019-04-07T22:29:05.648Z,13.45
2019-04-07T22:31:53.440Z,12.55
2019-04-07T22:34:24.772Z,13.68
2019-04-07T22:36:55.836Z,13.40
2019-04-07T22:39:28.743Z,13.18
2019-04-07T22:41:58.339Z,11.83
2019-04-07T22:44:29.159Z,12.58
2019-04-07T22:46:59.766Z,12.28
2019-04-07T22:49:32.315Z,12.88
2019-04-07T22:52:01.673Z,13.28
2019-04-07T22:54:32.727Z,12.33
2019-04-07T22:57:03.029Z,11.77
2019-04-07T22:59:34.328Z,12.23
2019-04-07T23:02:05.333Z,11.63
2019-04-07T23:04:36.765Z,11.90
2019-04-07T23:07:06.904Z,11.60
2019-04-07T23:09:37.149Z,11.33
2019-04-07T23:12:08.326Z,11.53
2019-04-07T23:14:38.551Z,11.05
2019-04-07T23:17:08.777Z,11.30
2019-04-07T23:19:39.866Z,10.68
2019-04-07T23:22:10.229Z,11.95
2019-04-07T23:24:41.123Z,12.15
2019-04-07T23:27:12.409Z,10.45
2019-04-07T23:29:42.741Z,10.67
2019-04-07T23:32:12.849Z,11.10
2019-04-07T23:34:43.626Z,11.65
2019-04-07T23:37:14.493Z,10.53
2019-04-07T23:39:44.735Z,10.58
2019-04-07T23:42:15.540Z,10.75
2019-04-07T23:44:45.956Z,10.97
2019-04-07T23:47:16.046Z,11.50
2019-04-07T23:49:46.827Z,11.70
2019-04-07T23:52:17.061Z,11.63
2019-04-07T23:54:47.164Z,11.35
2019-04-07T23:57:17.736Z,10.68
2019-04-07T23:59:48.591Z,11.55
